Time;durP1;ratioP1;P1;durP2;ratioP2;P2;SDS_P1;SDS_P2;PMS_P1;PMS_P2;Temp;Humidity;BMP_temperature;BMP_pressure;BME280_temperature;BME280_humidity;BME280_pressure;Samples;Min_cycle;Max_cycle;Signal;HPM_P1;HPM_P2
2021/03/24 00:07:30;;;;;;;25;16.6;;;;;;;4.1;100;99157.25;;;;
2021/03/24 00:17:28;;;;;;;21;16.2;;;;;;;4.17;100;99169.34;;;;
2021/03/24 00:27:26;;;;;;;18.4;16.2;;;;;;;4.18;100;99168.3;;;;
2021/03/24 00:37:24;;;;;;;22.1;16.6;;;;;;;4.14;100;99175.18;;;;
2021/03/24 00:47:22;;;;;;;17.4;13.4;;;;;;;4.03;100;99163.6;;;;
2021/03/24 00:57:20;;;;;;;17.2;12.9;;;;;;;4.07;100;99158.57;;;;
2021/03/24 01:07:18;;;;;;;18;13;;;;;;;3.94;100;99162.45;;;;
2021/03/24 01:17:16;;;;;;;15.3;10.2;;;;;;;3.91;100;99170.95;;;;
2021/03/24 01:27:14;;;;;;;13.6;9.1;;;;;;;3.87;100;99163.69;;;;
2021/03/24 01:37:12;;;;;;;12;10.1;;;;;;;3.87;100;99174.36;;;;
2021/03/24 01:47:10;;;;;;;20.8;11.4;;;;;;;3.81;100;99168.17;;;;
2021/03/24 01:57:08;;;;;;;17.5;11.9;;;;;;;3.81;100;99164.7;;;;
2021/03/24 02:07:06;;;;;;;16.6;11.9;;;;;;;3.78;100;99176.67;;;;
2021/03/24 02:17:04;;;;;;;25.6;11.8;;;;;;;3.8;100;99187.88;;;;
2021/03/24 02:27:02;;;;;;;14;9.8;;;;;;;3.7;100;99190.42;;;;
2021/03/24 02:37:01;;;;;;;11.8;8.7;;;;;;;3.74;100;99193.4;;;;
2021/03/24 02:46:58;;;;;;;15.8;11.5;;;;;;;3.67;100;99185.59;;;;
2021/03/24 02:56:56;;;;;;;18.9;13.5;;;;;;;3.7;100;99195.75;;;;
2021/03/24 03:06:54;;;;;;;19.5;13.5;;;;;;;3.68;100;99203.17;;;;
2021/03/24 03:16:52;;;;;;;19.2;13.8;;;;;;;3.63;100;99192.47;;;;
2021/03/24 03:26:50;;;;;;;21.9;13.3;;;;;;;3.7;100;99201.09;;;;
2021/03/24 03:36:48;;;;;;;16.9;15.1;;;;;;;3.54;100;99197.41;;;;
2021/03/24 03:46:49;;;;;;;22.9;17.1;;;;;;;3.57;100;99200.65;;;;
2021/03/24 03:56:56;;;;;;;23.3;18.8;;;;;;;3.55;100;99198.22;;;;
2021/03/24 04:06:42;;;;;;;27.5;19.1;;;;;;;3.58;100;99197.72;;;;
2021/03/24 04:16:40;;;;;;;30.8;20.6;;;;;;;3.5;100;99201.64;;;;
2021/03/24 04:26:38;;;;;;;25.4;19.4;;;;;;;3.55;100;99204.36;;;;
2021/03/24 04:36:36;;;;;;;23.2;18.7;;;;;;;3.53;100;99211.8;;;;
2021/03/24 04:46:34;;;;;;;27;22.3;;;;;;;3.5;100;99227.48;;;;
2021/03/24 04:56:32;;;;;;;30.5;21.3;;;;;;;3.53;100;99233.13;;;;
2021/03/24 05:06:30;;;;;;;22.1;19.8;;;;;;;3.65;100;99237.52;;;;
2021/03/24 05:16:28;;;;;;;28;19.1;;;;;;;3.62;100;99243.34;;;;
2021/03/24 05:26:26;;;;;;;24.4;18.4;;;;;;;3.66;100;99239.95;;;;
2021/03/24 05:36:24;;;;;;;25.4;22;;;;;;;3.71;100;99240.02;;;;
2021/03/24 05:46:22;;;;;;;23.6;19.9;;;;;;;3.89;100;99253.03;;;;
2021/03/24 05:56:20;;;;;;;28.2;23.3;;;;;;;3.9;100;99251.17;;;;
2021/03/24 06:06:18;;;;;;;23.1;19.2;;;;;;;4;100;99256.64;;;;
2021/03/24 06:16:16;;;;;;;30.8;22.2;;;;;;;4.02;100;99263.36;;;;
2021/03/24 06:26:14;;;;;;;24.7;21.8;;;;;;;4.12;100;99278.67;;;;
2021/03/24 06:36:33;;;;;;;34.8;25;;;;;;;4.18;100;99277.67;;;;
2021/03/24 06:46:10;;;;;;;28.2;22.1;;;;;;;4.2;100;99286.22;;;;
2021/03/24 06:56:17;;;;;;;29.4;18.1;;;;;;;4.36;99.57031;99295.22;;;;
2021/03/24 07:06:09;;;;;;;18.6;15.5;;;;;;;4.52;98.54688;99305;;;;
2021/03/24 07:16:04;;;;;;;22.5;17.8;;;;;;;4.77;97.61035;99320.48;;;;
2021/03/24 07:26:02;;;;;;;24.8;20.3;;;;;;;4.81;97.47461;99314.39;;;;
2021/03/24 07:36:00;;;;;;;25.2;17.8;;;;;;;5.01;96.19238;99319.92;;;;
2021/03/24 07:46:20;;;;;;;35.6;24.9;;;;;;;5.06;96.64551;99337.88;;;;
2021/03/24 07:55:57;;;;;;;28.7;19.5;;;;;;;5.29;95.28906;99326.85;;;;
2021/03/24 08:06:09;;;;;;;26.4;20.8;;;;;;;5.35;95.38086;99344.53;;;;
2021/03/24 08:16:06;;;;;;;28.4;24.4;;;;;;;5.3;95.54688;99327.66;;;;
2021/03/24 08:26:13;;;;;;;29.8;23.5;;;;;;;5.49;95.2666;99334.22;;;;
2021/03/24 08:36:05;;;;;;;20.4;17.9;;;;;;;5.32;93.90918;99328.2;;;;
2021/03/24 08:45:53;;;;;;;22.3;16.3;;;;;;;5.5;92.92773;99335.84;;;;
2021/03/24 08:55:56;;;;;;;29.3;17.7;;;;;;;5.57;93.03223;99333.75;;;;
2021/03/24 09:05:53;;;;;;;24.9;21.3;;;;;;;5.45;93.03125;99325.91;;;;
2021/03/24 09:15:43;;;;;;;26.4;16.7;;;;;;;5.61;90.76563;99324.16;;;;
2021/03/24 09:25:41;;;;;;;18.6;14.7;;;;;;;5.52;91.93262;99331.03;;;;
2021/03/24 09:35:39;;;;;;;22.8;15.4;;;;;;;5.56;91.36719;99330.27;;;;
2021/03/24 09:45:37;;;;;;;27;18.2;;;;;;;5.49;91.40527;99320.85;;;;
2021/03/24 09:55:36;;;;;;;26.9;15.3;;;;;;;5.59;91.09473;99310.23;;;;
2021/03/24 10:05:34;;;;;;;21.5;17.1;;;;;;;5.6;90.54102;99314.52;;;;
2021/03/24 10:15:32;;;;;;;25.9;14.2;;;;;;;5.57;90.1582;99310.5;;;;
2021/03/24 10:25:30;;;;;;;27.4;15.2;;;;;;;5.75;89.77051;99325.33;;;;
2021/03/24 10:35:28;;;;;;;32.3;18.2;;;;;;;5.87;88.60742;99312.58;;;;
2021/03/24 10:45:27;;;;;;;18.4;13.8;;;;;;;5.73;88.82031;99313.25;;;;
2021/03/24 10:55:25;;;;;;;19.4;14;;;;;;;5.75;88.7373;99314.63;;;;
2021/03/24 11:05:23;;;;;;;25;19.9;;;;;;;5.67;88.63184;99307.08;;;;
2021/03/24 11:15:21;;;;;;;20.4;13.8;;;;;;;5.8;88.89258;99308.48;;;;
2021/03/24 11:25:20;;;;;;;18.3;13;;;;;;;5.73;88.78711;99307.91;;;;
2021/03/24 11:35:18;;;;;;;21.9;14.6;;;;;;;5.81;87.73828;99300.22;;;;
2021/03/24 11:45:16;;;;;;;21;14.4;;;;;;;5.91;87.22363;99288.79;;;;
2021/03/24 11:55:14;;;;;;;28;15.2;;;;;;;5.8;86.75781;99285.22;;;;
2021/03/24 12:05:13;;;;;;;20.7;10.4;;;;;;;5.97;86.38184;99291.23;;;;
2021/03/24 12:15:11;;;;;;;19.5;12.8;;;;;;;6.07;85.86426;99279.8;;;;
2021/03/24 12:25:09;;;;;;;17.9;13.2;;;;;;;6.31;85.35547;99283.64;;;;
2021/03/24 12:35:07;;;;;;;25.8;18.3;;;;;;;6.47;84.62891;99276.44;;;;
2021/03/24 12:45:05;;;;;;;23.9;13.5;;;;;;;6.78;83.23926;99278.13;;;;
2021/03/24 12:55:04;;;;;;;18.3;13.7;;;;;;;6.49;83.22754;99277;;;;
2021/03/24 13:05:02;;;;;;;18.6;12.3;;;;;;;6.5;83.41992;99274.05;;;;
2021/03/24 13:15:02;;;;;;;19.8;15.1;;;;;;;6.38;84.68945;99265.45;;;;
2021/03/24 13:24:59;;;;;;;20.9;15.1;;;;;;;6.37;83.67285;99263.03;;;;
2021/03/24 13:34:57;;;;;;;25.8;16.7;;;;;;;6.5;84.02051;99251.81;;;;
2021/03/24 13:44:55;;;;;;;21.9;15.7;;;;;;;6.73;83.7627;99250.53;;;;
2021/03/24 13:54:58;;;;;;;24.7;15.3;;;;;;;7.19;82.91602;99244.1;;;;
2021/03/24 14:05:04;;;;;;;19.1;13.8;;;;;;;7.51;81.66699;99243.8;;;;
2021/03/24 14:15:03;;;;;;;21.6;16.8;;;;;;;7.31;80.32129;99243.84;;;;
2021/03/24 14:25:06;;;;;;;25.7;17.8;;;;;;;7.16;80.76465;99239.28;;;;
2021/03/24 14:34:59;;;;;;;20.5;15.3;;;;;;;7.24;80.38672;99229.91;;;;
2021/03/24 14:44:56;;;;;;;23.2;18;;;;;;;7.35;79.76855;99228.82;;;;
2021/03/24 14:54:54;;;;;;;24;15.8;;;;;;;7.17;79.60156;99229.38;;;;
2021/03/24 15:04:43;;;;;;;21;17.3;;;;;;;7.09;79.97949;99234.2;;;;
2021/03/24 15:14:42;;;;;;;19.8;14.9;;;;;;;7.12;79.77246;99222.13;;;;
2021/03/24 15:24:40;;;;;;;216;173;;;;;;;7.16;80.22656;99219.71;;;;
2021/03/24 15:34:38;;;;;;;22.2;15.7;;;;;;;7.11;80.36133;99222.41;;;;
2021/03/24 15:44:37;;;;;;;21;17.9;;;;;;;7.13;80.74512;99222.94;;;;
2021/03/24 15:54:35;;;;;;;21.5;17.2;;;;;;;7.16;80.40527;99227.75;;;;
2021/03/24 16:04:34;;;;;;;40;33.3;;;;;;;6.96;83.47461;99224.02;;;;
2021/03/24 16:14:32;;;;;;;47.4;39.8;;;;;;;6.58;86.64551;99227.2;;;;
2021/03/24 16:24:31;;;;;;;50.2;44.1;;;;;;;6.21;88.63184;99238.1;;;;
2021/03/24 16:34:29;;;;;;;58;42.7;;;;;;;6.03;89.81934;99241.24;;;;
2021/03/24 16:44:27;;;;;;;60.7;47.3;;;;;;;5.82;90.9209;99229.63;;;;
2021/03/24 16:54:26;;;;;;;60;41.9;;;;;;;5.75;90.54883;99226.38;;;;
2021/03/24 17:04:24;;;;;;;50.9;43.7;;;;;;;5.67;91.07617;99229.53;;;;
2021/03/24 17:14:22;;;;;;;53;45.9;;;;;;;5.48;91.89355;99229.15;;;;
2021/03/24 17:24:30;;;;;;;57.8;45.9;;;;;;;5.25;93.76074;99232.22;;;;
2021/03/24 17:34:19;;;;;;;63.5;50.3;;;;;;;5.27;93.38965;99242.66;;;;
2021/03/24 17:44:17;;;;;;;69.9;55.4;;;;;;;5.33;92.76953;99238.95;;;;
2021/03/24 17:54:15;;;;;;;73.4;55;;;;;;;4.96;94.81836;99241.63;;;;
2021/03/24 18:04:15;;;;;;;63.3;46.8;;;;;;;4.98;94.38965;99250.17;;;;
2021/03/24 18:14:12;;;;;;;57.8;49.5;;;;;;;4.81;95.48242;99255.65;;;;
2021/03/24 18:24:10;;;;;;;51.3;46.1;;;;;;;4.76;96.07031;99255.59;;;;
2021/03/24 18:34:08;;;;;;;66;58.9;;;;;;;4.65;96.85156;99253.09;;;;
2021/03/24 18:44:07;;;;;;;74.1;59.6;;;;;;;4.58;97.68945;99264.76;;;;
2021/03/24 18:54:05;;;;;;;78.7;60;;;;;;;4.62;97.89648;99262.39;;;;
2021/03/24 19:04:03;;;;;;;61.1;53;;;;;;;4.65;97.73633;99269.89;;;;
2021/03/24 19:14:01;;;;;;;66.1;54.1;;;;;;;4.64;97.55957;99268.3;;;;
2021/03/24 19:24:05;;;;;;;64.3;51.4;;;;;;;4.63;97.68848;99269.35;;;;
2021/03/24 19:33:57;;;;;;;96.7;69.4;;;;;;;4.76;96.65625;99274.28;;;;
2021/03/24 19:43:57;;;;;;;73.6;54.5;;;;;;;4.75;96.43359;99274.55;;;;
2021/03/24 19:53:54;;;;;;;70.6;53.2;;;;;;;4.82;95.97363;99275.96;;;;
2021/03/24 20:03:56;;;;;;;70.9;53.3;;;;;;;4.68;96.76953;99276.62;;;;
2021/03/24 20:13:52;;;;;;;59.1;48.6;;;;;;;4.76;95.83789;99284.96;;;;
2021/03/24 20:23:48;;;;;;;77.8;63.1;;;;;;;4.69;96.05469;99284.36;;;;
2021/03/24 20:33:56;;;;;;;85.4;63.2;;;;;;;4.69;95.54297;99283.55;;;;
2021/03/24 20:43:48;;;;;;;60.5;54;;;;;;;4.64;94.92676;99284.32;;;;
2021/03/24 20:53:44;;;;;;;67.4;51.3;;;;;;;4.68;94.34766;99293.44;;;;
2021/03/24 21:03:41;;;;;;;61.1;51.3;;;;;;;4.64;94.40625;99300.34;;;;
2021/03/24 21:13:39;;;;;;;55.8;47;;;;;;;4.61;94.13281;99290.16;;;;
2021/03/24 21:23:37;;;;;;;57;44.3;;;;;;;4.5;94.25195;99285.77;;;;
2021/03/24 21:33:35;;;;;;;65.6;51.4;;;;;;;4.53;94.00684;99288.75;;;;
2021/03/24 21:43:33;;;;;;;61.7;47.4;;;;;;;4.44;94.64746;99297.45;;;;
2021/03/24 21:53:31;;;;;;;60.8;45.7;;;;;;;4.39;94.7041;99298.2;;;;
2021/03/24 22:03:29;;;;;;;79.8;52.8;;;;;;;4.36;94.91699;99297.89;;;;
2021/03/24 22:13:28;;;;;;;60;50.1;;;;;;;4.32;95.34082;99304.77;;;;
2021/03/24 22:23:26;;;;;;;54.9;44.1;;;;;;;4.3;95.49121;99301.56;;;;
2021/03/24 22:33:24;;;;;;;54.7;46.8;;;;;;;4.2;95.41504;99290.77;;;;
2021/03/24 22:43:22;;;;;;;59.7;48.4;;;;;;;4.19;95.58789;99289.15;;;;
2021/03/24 22:53:20;;;;;;;64;44.2;;;;;;;4.11;95.89258;99279.72;;;;
2021/03/24 23:03:18;;;;;;;65.4;43.7;;;;;;;4;96.68359;99283.3;;;;
2021/03/24 23:13:16;;;;;;;51.3;43.9;;;;;;;4.03;96.42676;99274.8;;;;
2021/03/24 23:23:14;;;;;;;53.3;41.5;;;;;;;3.98;96.56934;99277.42;;;;
2021/03/24 23:33:12;;;;;;;51.2;39.6;;;;;;;3.99;96.60449;99271.05;;;;
2021/03/24 23:43:10;;;;;;;60.9;44.9;;;;;;;3.96;96.73145;99268.84;;;;
2021/03/24 23:53:08;;;;;;;59.9;43.4;;;;;;;3.85;97.4248;99259.91;;;;
